This is the latest recevied weather packets stored in our database for station/object TG9SRP-22. If no packets are shown the sender has not sent any weather packets the latest 1 day(s).
| Time | Temp. | Humidity | Pressure | Rain* | Wind** | Luminosity | Snow |
|---|---|---|---|---|---|---|---|
| 1778014684 | 23.33° C | 69% | 1011 hPa | 0 mm | 5.81 m/s, 180° | - | - |
| 1778014084 | 23.89° C | 67% | 1011 hPa | 0 mm | 5.81 m/s, 180° | - | - |
| 1778013483 | 25° C | 64% | 1011 hPa | 0 mm | 5.81 m/s, 180° | - | - |
| 1778012883 | 25° C | 64% | 1011 hPa | 0 mm | 5.81 m/s, 180° | - | - |
| 1778012282 | 25° C | 45% | 1011 hPa | 0 mm | 5.81 m/s, 180° | - | - |
| 1778011681 | 25° C | 45% | 1011 hPa | 0 mm | 5.81 m/s, 180° | - | - |
| 1778011081 | 26.11° C | 45% | 1011 hPa | 0 mm | 4.92 m/s, 200° | - | - |
| 1778010480 | 25° C | 45% | 1011 hPa | 0 mm | 4.92 m/s, 200° | - | - |
| 1778009880 | 25.56° C | 45% | 1011 hPa | 0 mm | 4.92 m/s, 200° | - | - |
| 1778009279 | 26.11° C | 45% | 1012 hPa | 0 mm | 4.92 m/s, 200° | - | - |
| 1778008679 | 26.67° C | 45% | 1012 hPa | 0 mm | 4.92 m/s, 200° | - | - |
| 1778008078 | 27.22° C | 45% | 1012 hPa | 0 mm | 4.92 m/s, 200° | - | - |
| 1778007477 | 23.89° C | 10% | - | 0 mm | 1.34 m/s, 133° | - | - |
| 1778006877 | 23.89° C | 10% | - | 0 mm | 1.34 m/s, 133° | - | - |
| 1778006276 | 23.89° C | 99% | 1012 hPa | 0 mm | 1.34 m/s, 133° | - | - |
| 1778005676 | 25° C | 99% | 1013 hPa | 0 mm | 1.79 m/s, 125° | - | - |
| 1778005075 | 25° C | 96% | 1013 hPa | 0 mm | 1.79 m/s, 125° | - | - |
| 1778004474 | 25° C | 84% | 1013 hPa | 0 mm | 1.79 m/s, 125° | - | - |
| 1778003874 | 25° C | 72% | 1013 hPa | 0 mm | 1.34 m/s, 0° | - | - |
| 1778003273 | 24.44° C | 64% | 1013 hPa | 0 mm | 1.34 m/s, 0° | - | - |
| 1778002673 | 24.44° C | 61% | 1013 hPa | 0 mm | 1.34 m/s, 0° | - | - |
| 1778002072 | 23.89° C | 57% | 1014 hPa | 0 mm | 1.34 m/s, 0° | - | - |
| 1778001471 | 24.44° C | 54% | 1014 hPa | 0 mm | 1.34 m/s, 0° | - | - |
| 1778000871 | 25° C | 54% | 1014 hPa | 0 mm | 1.34 m/s, 0° | - | - |
| 1778000270 | 23.33° C | 61% | 1014 hPa | 0 mm | 1.34 m/s, 0° | - | - |
* Rain latest hour (hover to see other rain measurements)
** Current wind speed in m/s (hover to see current wind gust speed)